Urb El Laurel, Puerto Rico
Current Conditions -  °F | °C
As of 3:56 PM on Friday 31 Oct 2014 (Local Time) from TJSJ Reporting Station
Scattered Clouds Scattered Clouds  
Wind Chill: 85°   Ceiling: Unl
Heat Index: 93°   Visibility: 10mi
Dew Point: 75°   Wind: 9mph
Humidity: 72%   Direction: 140°SE
Pressure: 29.85"   Gusts: NA
Location:  18.0474°N, 66.5517°W
Report Text: TJSJ 311956Z 14008KT 10SM FEW025 SCT065 SCT100 29/24 A2985 RMK AO2 SLP108 T02940239
Loading
Personal Weather Stations






























Interactive Weather Map
Tropical Storm Tracking
New forecast layout! Learn more

10-Day Weather Forecast

Advertisements
Track Severe Weather on mobile